Airfield :
LOGIN :

Register | Disclaimer

   EN    FR    IT 

 










Legend :    VFR   Marginal VFR   IFR   Intensive IFR   Very Intensive IFR
Visi :
Ceiling :
>= 8 km
>= 3000ft
5 to 8 km
1000 to 3000 ft
1500m to 5 km
500 to 1000 ft
800 to 1500m
200 to 500 ft
< 800m
< 200 ft
Symbols :   Thunderstorms  Fog  Heavy snow  Heavy precipitations  Wind > 20 kt
SIGMETs :     Misc.  Thunderstorms  Icing  Turbulence  Mountain Waves  Volcanic Ashes







- Airport Elevation : 82 ft
- IATA code : ALG


DAAG - Alger Houari Boumedienne

CURRENT METAR :
  • 231730Z 23003KT 170V330 CAVOK 14/12 Q1027

EXPIRED METARs :
  • 231700Z 33004KT 290V350 CAVOK 16/12 Q1027
  • 231630Z 34006KT CAVOK 17/13 Q1027
  • 231600Z 33008KT CAVOK 18/12 Q1027
  • 231530Z 29006KT CAVOK 19/10 Q1027
  • 231500Z 26007KT CAVOK 20/10 Q1026

TAF TAF DAAG
Valid from the 23 at 18:00 until the 24 at 18:00 UTC


231700Z 2318/2418 VRB02KT CAVOK
PROB40
TEMPO 2320/2404 3000 BR BKN015
TEMPO 2412/2416 05010KT
No reported NOTAMs for that airfield.



MET'MAP, your aeronautical weather chart ! - Copyright ORBIFLY December 2007 - Disclaimer

ORBIFLY MET'MAP TEAM :

Programming & Development : Alexandra Zaïnal
Concept & Development : Baudouin d'Aumeries
Co-Development & Prog : Marc-Olivier Méhu
Technical & hardware support : Manuel Goepfert

Contact : metmap@orbifly.com




SOURCES & CREDITS :

   NOAA